Time;durP1;ratioP1;P1;durP2;ratioP2;P2;SDS_P1;SDS_P2;PMS_P1;PMS_P2;Temp;Humidity;BMP_temperature;BMP_pressure;BME280_temperature;BME280_humidity;BME280_pressure;Samples;Min_cycle;Max_cycle;Signal;HPM_P1;HPM_P2
2022/05/31 00:02:06;;;;;;;;;;;;;;;14.48;61.08;100123.31;5019134;28;20340;-71
2022/05/31 00:04:32;;;;;;;;;;;;;;;14.46;61.15;100125.56;5002217;28;19932;-70
2022/05/31 00:06:58;;;;;;;;;;;;;;;14.42;61.04;100130.81;5004678;28;19964;-70
2022/05/31 00:09:24;;;;;;;;;;;;;;;14.40;61.08;100138.53;5002093;28;19932;-70
2022/05/31 00:11:51;;;;;;;;;;;;;;;14.39;60.99;100136.09;5002516;28;20375;-71
2022/05/31 00:14:17;;;;;;;;;;;;;;;14.38;61.35;100134.47;5000567;28;19929;-70
2022/05/31 00:16:47;;;;;;;;;;;;;;;14.28;61.81;100125.19;5005692;28;19929;-70
2022/05/31 00:19:14;;;;;;;;;;;;;;;14.28;62.17;100136.19;5019264;28;19948;-70
2022/05/31 00:21:49;;;;;;;;;;;;;;;14.24;62.74;100139.81;5025897;28;19925;-70
2022/05/31 00:24:16;;;;;;;;;;;;;;;14.21;63.12;100138.50;5023694;28;19924;-70
2022/05/31 00:26:42;;;;;;;;;;;;;;;14.20;63.70;100138.78;5040020;28;19991;-70
2022/05/31 00:29:10;;;;;;;;;;;;;;;14.18;63.97;100130.81;5020505;28;19983;-70
2022/05/31 00:31:36;;;;;;;;;;;;;;;14.18;64.10;100131.63;5021903;28;19947;-71
2022/05/31 00:34:02;;;;;;;;;;;;;;;14.18;64.27;100139.03;5024591;28;19964;-70
2022/05/31 00:36:28;;;;;;;;;;;;;;;14.17;64.62;100146.50;5025637;28;19979;-70
2022/05/31 00:38:54;;;;;;;;;;;;;;;14.18;64.69;100139.03;5024025;28;19925;-69
2022/05/31 00:41:23;;;;;;;;;;;;;;;14.17;65.10;100143.75;5022715;28;19925;-70
2022/05/31 00:43:49;;;;;;;;;;;;;;;14.17;65.24;100149.25;5039882;28;19925;-69
2022/05/31 00:46:18;;;;;;;;;;;;;;;14.20;64.78;100150.56;5040192;28;19931;-70
2022/05/31 00:48:47;;;;;;;;;;;;;;;14.23;64.86;100151.94;5025063;28;19929;-67
2022/05/31 00:51:14;;;;;;;;;;;;;;;14.22;65.32;100148.38;5020647;28;19929;-67
2022/05/31 00:53:42;;;;;;;;;;;;;;;14.22;65.36;100158.53;5022305;28;19943;-67
2022/05/31 00:56:10;;;;;;;;;;;;;;;14.19;65.62;100159.94;5039902;28;19925;-67
2022/05/31 00:58:37;;;;;;;;;;;;;;;14.18;65.34;100156.38;5024112;28;20019;-67
2022/05/31 01:01:04;;;;;;;;;;;;;;;14.21;65.09;100152.25;5021227;28;19925;-65
2022/05/31 01:03:34;;;;;;;;;;;;;;;14.25;64.49;100149.72;5023685;28;19979;-68
2022/05/31 01:06:00;;;;;;;;;;;;;;;14.28;64.11;100149.94;5004336;28;19924;-67
2022/05/31 01:08:26;;;;;;;;;;;;;;;14.31;63.76;100151.31;5038950;28;19931;-67
2022/05/31 01:11:13;;;;;;;;;;;;;;;14.34;63.76;100145.22;5020182;28;19930;-66
2022/05/31 01:13:59;;;;;;;;;;;;;;;14.36;63.69;100144.91;5023042;28;19925;-68
2022/05/31 01:16:53;;;;;;;;;;;;;;;14.38;63.34;100145.47;5024229;28;20327;-67
2022/05/31 01:19:59;;;;;;;;;;;;;;;14.41;62.33;100147.63;5024395;28;19925;-67
2022/05/31 01:22:36;;;;;;;;;;;;;;;14.41;62.07;100150.38;5021201;28;19925;-67
2022/05/31 01:25:08;;;;;;;;;;;;;;;14.42;62.02;100150.06;5023327;28;19964;-68
2022/05/31 01:27:39;;;;;;;;;;;;;;;14.44;62.35;100155.28;5023932;28;19924;-70
2022/05/31 01:30:07;;;;;;;;;;;;;;;14.44;62.90;100156.13;5024841;28;19931;-68
2022/05/31 01:32:35;;;;;;;;;;;;;;;14.43;63.13;100164.66;5023279;28;19976;-66
2022/05/31 01:35:02;;;;;;;;;;;;;;;14.40;63.49;100165.25;5025485;28;19987;-69
2022/05/31 01:37:35;;;;;;;;;;;;;;;14.36;63.94;100162.25;5023571;28;19925;-70
2022/05/31 01:40:07;;;;;;;;;;;;;;;14.33;63.98;100160.09;5012417;28;20384;-69
2022/05/31 01:42:36;;;;;;;;;;;;;;;14.29;64.43;100168.09;5004042;28;19930;-70
2022/05/31 01:45:05;;;;;;;;;;;;;;;14.28;64.16;100169.19;5003618;28;19935;-71
2022/05/31 01:47:30;;;;;;;;;;;;;;;14.26;64.49;100162.34;5002702;28;19925;-71
2022/05/31 01:49:57;;;;;;;;;;;;;;;14.24;64.97;100164.56;5002083;28;19925;-70
2022/05/31 01:52:23;;;;;;;;;;;;;;;14.23;65.83;100165.69;5001100;28;19925;-67
2022/05/31 01:54:50;;;;;;;;;;;;;;;14.20;65.74;100156.06;5002193;28;19976;-67
2022/05/31 01:57:19;;;;;;;;;;;;;;;14.18;65.81;100159.13;5001445;28;19925;-67
2022/05/31 01:59:47;;;;;;;;;;;;;;;14.09;66.36;100154.56;5000885;28;19925;-67
2022/05/31 02:02:15;;;;;;;;;;;;;;;14.12;66.18;100165.78;5020428;28;19929;-67
2022/05/31 02:04:40;;;;;;;;;;;;;;;14.12;66.06;100168.53;5004012;28;19932;-67
2022/05/31 02:07:13;;;;;;;;;;;;;;;14.14;65.62;100168.25;5021865;28;19929;-67
2022/05/31 02:09:43;;;;;;;;;;;;;;;14.17;65.34;100165.75;5004848;28;19936;-67
2022/05/31 02:12:13;;;;;;;;;;;;;;;14.22;65.22;100170.38;5017073;28;19936;-67
2022/05/31 02:14:52;;;;;;;;;;;;;;;14.24;65.22;100159.91;5042929;28;19956;-70
2022/05/31 02:17:18;;;;;;;;;;;;;;;14.27;65.24;100174.97;5026164;28;19929;-70
2022/05/31 02:20:07;;;;;;;;;;;;;;;14.30;64.68;100166.19;5027090;28;20454;-70
2022/05/31 02:22:33;;;;;;;;;;;;;;;14.30;64.20;100177.19;5025699;28;19956;-70
2022/05/31 02:25:00;;;;;;;;;;;;;;;14.27;63.94;100178.56;5028543;28;20621;-69
2022/05/31 02:27:26;;;;;;;;;;;;;;;14.26;64.66;100176.94;5024657;28;20368;-69
2022/05/31 02:29:57;;;;;;;;;;;;;;;14.26;64.80;100174.19;5041211;28;19924;-69
2022/05/31 02:32:23;;;;;;;;;;;;;;;14.22;64.65;100170.38;5039633;28;20479;-71
2022/05/31 02:34:49;;;;;;;;;;;;;;;14.23;64.68;100172.00;5007218;28;20020;-69
2022/05/31 02:37:18;;;;;;;;;;;;;;;14.21;64.90;100174.25;5005405;28;20953;-70
2022/05/31 02:39:44;;;;;;;;;;;;;;;14.17;64.79;100181.41;5006475;28;19928;-70
2022/05/31 02:42:11;;;;;;;;;;;;;;;14.11;65.09;100171.56;5021417;28;19925;-70
2022/05/31 02:44:37;;;;;;;;;;;;;;;14.08;64.86;100177.66;5008673;28;19926;-71
2022/05/31 02:47:05;;;;;;;;;;;;;;;14.03;65.42;100181.28;5007658;28;20020;-71
2022/05/31 02:49:31;;;;;;;;;;;;;;;13.98;65.61;100184.88;5007526;28;19948;-70
2022/05/31 02:51:57;;;;;;;;;;;;;;;13.98;65.93;100182.13;5004179;28;20389;-70
2022/05/31 02:54:23;;;;;;;;;;;;;;;13.98;65.94;100189.56;5008466;28;19936;-69
2022/05/31 02:57:08;;;;;;;;;;;;;;;13.94;65.91;100194.81;5006329;28;20031;-67
2022/05/31 02:59:53;;;;;;;;;;;;;;;13.92;66.05;100188.78;5008968;28;20312;-66
2022/05/31 03:02:49;;;;;;;;;;;;;;;13.92;66.13;100188.78;5009070;28;19931;-67
2022/05/31 03:05:27;;;;;;;;;;;;;;;13.93;66.23;100193.19;5008092;28;19926;-67
2022/05/31 03:08:16;;;;;;;;;;;;;;;13.89;66.71;100194.84;5002790;28;19972;-68
2022/05/31 03:11:10;;;;;;;;;;;;;;;13.87;66.90;100195.16;5003541;28;19925;-67
2022/05/31 03:13:36;;;;;;;;;;;;;;;13.86;66.83;100199.00;5021445;28;19926;-67
2022/05/31 03:16:02;;;;;;;;;;;;;;;13.80;67.38;100193.84;5013192;28;19994;-67
2022/05/31 03:18:33;;;;;;;;;;;;;;;13.75;68.14;100200.19;5026706;28;20411;-65
2022/05/31 03:21:04;;;;;;;;;;;;;;;13.72;68.76;100207.06;5025143;28;19936;-67
2022/05/31 03:23:32;;;;;;;;;;;;;;;13.69;69.07;100212.31;5027782;28;19971;-67
2022/05/31 03:26:00;;;;;;;;;;;;;;;13.64;69.41;100210.44;5025853;28;19939;-67
2022/05/31 03:28:27;;;;;;;;;;;;;;;13.56;69.79;100209.13;5040476;28;19952;-67
2022/05/31 03:30:53;;;;;;;;;;;;;;;13.49;70.58;100211.34;5024947;28;19935;-68
2022/05/31 03:33:19;;;;;;;;;;;;;;;13.42;71.31;100214.38;5028344;28;20625;-68
2022/05/31 03:35:47;;;;;;;;;;;;;;;13.39;72.42;100214.94;5023036;28;20410;-68
2022/05/31 03:38:21;;;;;;;;;;;;;;;13.35;73.33;100213.88;5038577;28;19925;-68
2022/05/31 03:40:58;;;;;;;;;;;;;;;13.33;73.71;100216.09;5041668;28;19938;-68
2022/05/31 03:43:47;;;;;;;;;;;;;;;13.29;73.34;100209.53;5007373;28;19926;-67
2022/05/31 03:46:33;;;;;;;;;;;;;;;13.31;73.66;100210.88;4986086;28;19936;-68
2022/05/31 03:49:38;;;;;;;;;;;;;;;13.34;73.26;100206.75;4961988;28;20028;-67
2022/05/31 03:52:07;;;;;;;;;;;;;;;13.39;73.39;100217.69;4946728;28;19926;-70
2022/05/31 03:54:39;;;;;;;;;;;;;;;13.46;73.28;100218.25;4963278;28;20475;-70
2022/05/31 03:57:12;;;;;;;;;;;;;;;13.51;73.85;100224.81;4966303;28;19926;-70
2022/05/31 03:59:39;;;;;;;;;;;;;;;13.51;73.45;100208.31;4949048;28;20032;-69
2022/05/31 04:02:06;;;;;;;;;;;;;;;13.50;73.81;100210.22;4963516;28;19926;-70
2022/05/31 04:04:33;;;;;;;;;;;;;;;13.54;73.88;100210.50;4963936;28;20334;-70
2022/05/31 04:07:00;;;;;;;;;;;;;;;13.57;73.74;100210.75;4948569;28;19926;-70
2022/05/31 04:09:27;;;;;;;;;;;;;;;13.65;73.53;100216.72;4932217;28;20480;-70
2022/05/31 04:11:56;;;;;;;;;;;;;;;13.68;72.48;100213.44;4963082;28;19930;-69
2022/05/31 04:14:52;;;;;;;;;;;;;;;13.74;72.53;100213.13;4912635;28;19927;-70
2022/05/31 04:17:18;;;;;;;;;;;;;;;13.84;72.87;100214.97;4931376;28;20401;-71
2022/05/31 04:19:44;;;;;;;;;;;;;;;13.92;72.22;100218.19;4963744;28;19979;-70
2022/05/31 04:22:10;;;;;;;;;;;;;;;13.96;72.16;100209.09;5023111;28;19925;-69
2022/05/31 04:24:38;;;;;;;;;;;;;;;14.02;72.34;100207.94;5004899;28;19926;-70
2022/05/31 04:27:30;;;;;;;;;;;;;;;14.03;72.42;100197.75;4978283;28;19926;-69
2022/05/31 04:30:34;;;;;;;;;;;;;;;14.09;72.31;100204.84;4950195;28;19977;-69
2022/05/31 04:33:26;;;;;;;;;;;;;;;14.13;72.66;100207.84;4953756;28;19925;-70
2022/05/31 04:35:59;;;;;;;;;;;;;;;14.11;72.15;100205.38;4945484;28;19925;-69
2022/05/31 04:38:25;;;;;;;;;;;;;;;14.11;71.91;100197.13;4964217;28;19926;-70
2022/05/31 04:41:16;;;;;;;;;;;;;;;14.11;71.68;100199.06;4966527;28;20024;-69
2022/05/31 04:43:55;;;;;;;;;;;;;;;14.09;71.45;100207.59;4958433;28;19926;-70
2022/05/31 04:46:29;;;;;;;;;;;;;;;14.06;71.36;100199.94;4942563;29;19957;-70
2022/05/31 04:49:17;;;;;;;;;;;;;;;14.01;71.25;100203.53;4942760;29;19927;-70
2022/05/31 04:51:43;;;;;;;;;;;;;;;13.98;71.26;100204.13;4960081;28;19980;-70
2022/05/31 04:54:13;;;;;;;;;;;;;;;13.95;71.20;100201.13;4616816;28;9999750;-70
2022/05/31 04:57:00;;;;;;;;;;;;;;;13.90;71.40;100199.25;4954145;28;19963;-70
2022/05/31 04:59:26;;;;;;;;;;;;;;;13.90;72.07;100199.25;4960978;28;20567;-70
2022/05/31 05:01:52;;;;;;;;;;;;;;;13.95;72.53;100201.13;5003948;28;19925;-70
2022/05/31 05:04:38;;;;;;;;;;;;;;;14.00;72.31;100210.16;5018565;28;20407;-70
2022/05/31 05:07:05;;;;;;;;;;;;;;;14.10;72.35;100201.00;5019580;28;20024;-70
2022/05/31 05:09:31;;;;;;;;;;;;;;;14.16;71.75;100202.59;5019071;28;19928;-70
2022/05/31 05:12:36;;;;;;;;;;;;;;;14.21;71.39;100195.41;5018963;28;19925;-70
2022/05/31 05:15:14;;;;;;;;;;;;;;;14.17;71.66;100198.75;5021348;28;19948;-70
2022/05/31 05:17:40;;;;;;;;;;;;;;;14.18;72.33;100194.03;5041463;28;19947;-69
2022/05/31 05:20:07;;;;;;;;;;;;;;;14.20;72.37;100188.25;5040275;28;20411;-70
2022/05/31 05:22:33;;;;;;;;;;;;;;;14.22;71.71;100191.53;5019234;28;19931;-67
2022/05/31 05:25:01;;;;;;;;;;;;;;;14.25;71.60;100185.44;5034250;28;20344;-67
2022/05/31 05:27:58;;;;;;;;;;;;;;;14.32;71.40;100175.75;5023230;28;20015;-66
2022/05/31 05:30:44;;;;;;;;;;;;;;;14.36;71.70;100187.00;5021254;28;19943;-67
2022/05/31 05:33:19;;;;;;;;;;;;;;;14.39;71.29;100183.66;5024622;28;20462;-67
2022/05/31 05:36:04;;;;;;;;;;;;;;;14.54;71.27;100185.44;5008294;28;20380;-70
2022/05/31 05:38:30;;;;;;;;;;;;;;;14.62;70.57;100181.22;4999084;28;20080;-70
2022/05/31 05:41:14;;;;;;;;;;;;;;;14.71;70.64;100173.97;5000933;28;19968;-71
2022/05/31 05:44:05;;;;;;;;;;;;;;;14.76;70.80;100172.31;5003910;28;20171;-71
2022/05/31 05:46:32;;;;;;;;;;;;;;;14.76;70.99;100167.59;5022759;28;19944;-71
2022/05/31 05:48:58;;;;;;;;;;;;;;;14.74;71.08;100181.66;5005020;28;19926;-70
2022/05/31 05:51:25;;;;;;;;;;;;;;;14.71;70.99;100170.41;5001750;28;19936;-71
2022/05/31 05:54:14;;;;;;;;;;;;;;;14.72;70.83;100172.88;4979027;28;19972;-71
2022/05/31 05:57:12;;;;;;;;;;;;;;;14.73;71.25;100163.50;4986285;28;19936;-71
2022/05/31 05:59:58;;;;;;;;;;;;;;;14.65;71.15;100175.13;5008166;28;20066;-71
2022/05/31 06:02:46;;;;;;;;;;;;;;;14.64;71.48;100169.91;5010574;28;19925;-71
2022/05/31 06:05:29;;;;;;;;;;;;;;;14.57;71.39;100164.75;5024093;28;19925;-68
2022/05/31 06:07:58;;;;;;;;;;;;;;;14.52;71.54;100175.84;5032487;28;19952;-68
2022/05/31 06:10:26;;;;;;;;;;;;;;;14.50;72.04;100167.06;5018478;28;19932;-68
2022/05/31 06:12:56;;;;;;;;;;;;;;;14.37;72.18;100166.63;5008685;28;19925;-71
2022/05/31 06:15:26;;;;;;;;;;;;;;;14.35;72.62;100171.59;5027927;28;19968;-71
2022/05/31 06:17:55;;;;;;;;;;;;;;;14.27;73.33;100166.72;4991829;28;19926;-71
2022/05/31 06:20:21;;;;;;;;;;;;;;;14.23;73.91;100162.94;5037389;28;19932;-71
2022/05/31 06:22:47;;;;;;;;;;;;;;;14.17;74.61;100171.25;5030261;28;20388;-71
2022/05/31 06:25:20;;;;;;;;;;;;;;;14.13;75.33;100161.94;5029308;28;20007;-71
2022/05/31 06:27:52;;;;;;;;;;;;;;;14.06;76.54;100169.69;5029218;28;19971;-71
2022/05/31 06:30:18;;;;;;;;;;;;;;;13.99;77.01;100169.22;5042577;28;19971;-73
2022/05/31 06:32:46;;;;;;;;;;;;;;;13.94;77.62;100167.34;5038930;28;19925;-71
2022/05/31 06:35:12;;;;;;;;;;;;;;;13.90;77.46;100164.31;5001908;28;19947;-70
2022/05/31 06:38:02;;;;;;;;;;;;;;;13.89;77.94;100173.69;5005468;28;19933;-71
2022/05/31 06:40:29;;;;;;;;;;;;;;;13.85;78.24;100167.13;5023562;28;20008;-71
2022/05/31 06:42:58;;;;;;;;;;;;;;;13.82;78.36;100170.47;5024958;28;20026;-71
2022/05/31 06:45:54;;;;;;;;;;;;;;;13.82;78.38;100162.22;5007631;28;19965;-71
2022/05/31 06:48:50;;;;;;;;;;;;;;;13.80;78.27;100169.91;5017313;28;19924;-71
2022/05/31 06:56:48;;;;;;;;;;;;;;;13.84;78.44;100153.66;5028820;28;19931;-71
2022/05/31 06:57:30;;;;;;;;;;;;;;;14.10;77.39;100153.44;5006558;28;19932;-71
2022/05/31 07:00:09;;;;;;;;;;;;;;;14.18;76.90;100156.38;5023386;28;19983;-71
2022/05/31 07:02:35;;;;;;;;;;;;;;;14.30;76.50;100157.91;5008800;28;19929;-71
2022/05/31 07:05:03;;;;;;;;;;;;;;;14.35;75.50;100155.09;5009433;28;19925;-71
2022/05/31 07:07:29;;;;;;;;;;;;;;;14.45;75.77;100152.25;5011229;28;19932;-71
2022/05/31 07:09:55;;;;;;;;;;;;;;;14.62;75.06;100150.97;5028374;28;19929;-71
2022/05/31 07:12:41;;;;;;;;;;;;;;;14.74;75.06;100153.31;5030339;28;19929;-71
2022/05/31 07:15:39;;;;;;;;;;;;;;;14.81;74.49;100145.50;5024071;28;19955;-71
2022/05/31 07:18:34;;;;;;;;;;;;;;;15.05;73.90;100160.34;5007896;28;20324;-71
2022/05/31 07:21:02;;;;;;;;;;;;;;;15.15;73.38;100155.53;5038002;28;20379;-71
2022/05/31 07:23:29;;;;;;;;;;;;;;;15.29;72.97;100157.53;5028010;28;20371;-71
2022/05/31 07:25:58;;;;;;;;;;;;;;;15.40;72.50;100147.19;5027625;28;20027;-71
2022/05/31 07:28:28;;;;;;;;;;;;;;;15.58;72.50;100153.78;5043712;28;19924;-71
2022/05/31 07:30:54;;;;;;;;;;;;;;;15.77;72.13;100150.22;5040005;28;20040;-71
2022/05/31 07:33:23;;;;;;;;;;;;;;;15.86;71.25;100151.13;5041173;28;19929;-71
2022/05/31 07:35:49;;;;;;;;;;;;;;;15.89;71.71;100147.81;5035275;28;19932;-68
2022/05/31 07:38:17;;;;;;;;;;;;;;;15.97;70.74;100149.03;5024409;28;20339;-68
2022/05/31 07:40:44;;;;;;;;;;;;;;;16.11;70.40;100149.09;5008015;28;19971;-68
2022/05/31 07:43:10;;;;;;;;;;;;;;;16.30;69.99;100147.06;5009180;28;19929;-68
2022/05/31 07:45:37;;;;;;;;;;;;;;;16.30;69.60;100141.56;5008512;28;19928;-68
2022/05/31 07:48:04;;;;;;;;;;;;;;;16.48;69.49;100152.81;5021471;28;19941;-69
2022/05/31 07:50:31;;;;;;;;;;;;;;;16.71;68.73;100150.16;5029507;28;19967;-68
2022/05/31 07:53:27;;;;;;;;;;;;;;;16.90;67.80;100144.50;4973160;28;20406;-68
2022/05/31 07:56:11;;;;;;;;;;;;;;;17.05;67.32;100145.31;5009481;28;20408;-68
2022/05/31 07:58:55;;;;;;;;;;;;;;;17.22;66.60;100139.16;5007875;28;19932;-68
2022/05/31 08:01:25;;;;;;;;;;;;;;;17.41;65.75;100144.53;5005672;28;20396;-68
2022/05/31 08:03:53;;;;;;;;;;;;;;;17.56;65.11;100141.38;5027305;28;19925;-68
2022/05/31 08:06:20;;;;;;;;;;;;;;;17.76;64.57;100143.94;5023359;28;19983;-68
2022/05/31 08:08:48;;;;;;;;;;;;;;;17.88;64.51;100146.94;5023113;28;19947;-68
2022/05/31 08:11:14;;;;;;;;;;;;;;;18.03;63.54;100137.50;5036465;28;19929;-67
2022/05/31 08:13:40;;;;;;;;;;;;;;;17.96;63.60;100140.66;5008835;28;20343;-68
2022/05/31 08:16:07;;;;;;;;;;;;;;;17.88;63.03;100141.41;5011335;28;19991;-68
2022/05/31 08:18:34;;;;;;;;;;;;;;;17.77;63.45;100140.03;5021532;28;19925;-69
2022/05/31 08:21:00;;;;;;;;;;;;;;;17.57;63.83;100142.19;5028001;28;19925;-68
2022/05/31 08:23:26;;;;;;;;;;;;;;;17.38;63.59;100137.66;5024331;28;19932;-68
2022/05/31 08:25:54;;;;;;;;;;;;;;;17.24;64.15;100131.34;5027099;28;19928;-68
2022/05/31 08:28:20;;;;;;;;;;;;;;;17.10;63.98;100137.75;5027090;28;20102;-68
2022/05/31 08:30:46;;;;;;;;;;;;;;;17.01;64.17;100142.34;5027290;28;20023;-68
2022/05/31 08:33:12;;;;;;;;;;;;;;;16.89;63.58;100136.53;5027273;28;19925;-68
2022/05/31 08:35:37;;;;;;;;;;;;;;;16.84;64.00;100137.47;5027212;28;19931;-68
2022/05/31 08:38:03;;;;;;;;;;;;;;;16.83;63.77;100141.34;5024800;28;19929;-68
2022/05/31 08:40:29;;;;;;;;;;;;;;;16.87;63.83;100134.91;5024641;28;19925;-68
2022/05/31 08:42:57;;;;;;;;;;;;;;;16.87;63.32;100136.84;5021980;28;19929;-68
2022/05/31 08:45:32;;;;;;;;;;;;;;;16.93;63.52;100130.06;5028698;28;19928;-68
2022/05/31 08:47:59;;;;;;;;;;;;;;;16.99;63.00;100141.84;5026994;28;20377;-68
2022/05/31 08:53:24;;;;;;;;;;;;;;;17.01;62.82;100140.41;5007064;28;20428;-68
2022/05/31 08:58:43;;;;;;;;;;;;;;;17.07;62.46;100146.66;5005887;28;19925;-68
2022/05/31 09:01:10;;;;;;;;;;;;;;;17.13;62.31;100141.84;5010197;28;19925;-68
2022/05/31 09:03:41;;;;;;;;;;;;;;;17.14;61.90;100138.75;5006271;28;19964;-68
2022/05/31 09:06:08;;;;;;;;;;;;;;;17.13;62.00;100137.09;5007116;28;20351;-70
2022/05/31 09:08:37;;;;;;;;;;;;;;;17.14;62.13;100137.94;5006657;28;19929;-67
2022/05/31 09:11:07;;;;;;;;;;;;;;;17.14;61.32;100133.22;4988483;28;19932;-68
2022/05/31 09:13:36;;;;;;;;;;;;;;;17.17;60.92;100137.31;5005549;28;19925;-68
2022/05/31 09:16:09;;;;;;;;;;;;;;;17.21;61.52;100134.75;5007707;28;19931;-68
2022/05/31 09:18:39;;;;;;;;;;;;;;;17.17;61.62;100134.56;5006516;28;19971;-68
2022/05/31 09:21:11;;;;;;;;;;;;;;;17.13;62.26;100133.53;5007456;28;19925;-68
2022/05/31 09:23:40;;;;;;;;;;;;;;;17.12;62.27;100141.00;5010714;28;20396;-68
2022/05/31 09:26:14;;;;;;;;;;;;;;;17.22;62.70;100142.72;5014586;28;19924;-68
2022/05/31 09:28:46;;;;;;;;;;;;;;;17.26;62.74;100132.69;5022579;28;20400;-68
2022/05/31 09:31:19;;;;;;;;;;;;;;;17.26;62.35;100123.56;5012228;28;19932;-68
2022/05/31 09:33:49;;;;;;;;;;;;;;;17.30;62.61;100127.34;5007111;28;19926;-68
2022/05/31 09:36:21;;;;;;;;;;;;;;;17.28;62.26;100129.59;5009785;28;20403;-68
2022/05/31 09:38:56;;;;;;;;;;;;;;;17.29;62.58;100132.06;5018591;28;19925;-67
2022/05/31 09:41:25;;;;;;;;;;;;;;;17.39;62.16;100133.75;5027813;28;20031;-68
2022/05/31 09:43:53;;;;;;;;;;;;;;;17.43;62.16;100136.72;5042034;28;19925;-68
2022/05/31 09:46:28;;;;;;;;;;;;;;;17.49;61.58;100138.22;5026193;28;19924;-68
2022/05/31 09:48:55;;;;;;;;;;;;;;;17.52;61.48;100139.56;5003762;28;20024;-68
2022/05/31 09:51:26;;;;;;;;;;;;;;;17.40;61.10;100129.88;5006485;28;19937;-68
2022/05/31 09:57:06;;;;;;;;;;;;;;;17.04;62.51;100129.88;5002438;28;19925;-68
2022/05/31 09:59:52;;;;;;;;;;;;;;;16.86;63.09;100135.19;5010403;28;20412;-68
2022/05/31 10:02:38;;;;;;;;;;;;;;;16.71;63.54;100136.34;5006888;28;19953;-68
2022/05/31 10:05:09;;;;;;;;;;;;;;;16.65;63.71;100143.91;5002698;28;20434;-68
2022/05/31 10:07:37;;;;;;;;;;;;;;;16.71;63.44;100139.91;5009669;28;19929;-68
2022/05/31 10:10:06;;;;;;;;;;;;;;;16.85;63.25;100139.09;5018171;28;19943;-68
2022/05/31 10:12:34;;;;;;;;;;;;;;;17.01;63.08;100134.91;5020932;28;19956;-68
2022/05/31 10:15:03;;;;;;;;;;;;;;;17.13;62.46;100133.53;5005387;28;20404;-68
2022/05/31 10:17:32;;;;;;;;;;;;;;;17.19;62.08;100139.78;5004995;28;19925;-68
2022/05/31 10:20:14;;;;;;;;;;;;;;;17.19;61.90;100123.19;5004068;28;19925;-68
2022/05/31 10:22:48;;;;;;;;;;;;;;;17.27;61.60;100122.44;5009234;28;19929;-68
2022/05/31 10:25:34;;;;;;;;;;;;;;;17.49;61.48;100124.41;5026410;28;19932;-68
2022/05/31 10:28:40;;;;;;;;;;;;;;;17.52;61.79;100125.72;4967968;28;19933;-68
2022/05/31 10:31:14;;;;;;;;;;;;;;;17.32;61.45;100125.06;4952147;28;19933;-68
2022/05/31 10:33:40;;;;;;;;;;;;;;;17.13;62.10;100126.06;4951565;28;19965;-68
2022/05/31 10:36:15;;;;;;;;;;;;;;;17.04;62.67;100129.88;4965957;28;19933;-68
2022/05/31 10:38:42;;;;;;;;;;;;;;;17.00;63.31;100127.75;4965308;28;20389;-68
2022/05/31 10:41:11;;;;;;;;;;;;;;;16.95;63.49;100127.84;4967555;28;19965;-68
2022/05/31 10:43:39;;;;;;;;;;;;;;;16.92;63.91;100130.38;4967831;28;19930;-68
2022/05/31 10:46:09;;;;;;;;;;;;;;;16.81;64.20;100127.84;4969780;28;19926;-68
2022/05/31 10:48:38;;;;;;;;;;;;;;;16.72;64.48;100124.97;4966474;28;19981;-67
2022/05/31 10:51:07;;;;;;;;;;;;;;;16.68;65.15;100131.44;4970805;28;19937;-68
2022/05/31 10:53:44;;;;;;;;;;;;;;;16.65;65.24;100126.53;4968491;28;19926;-68
2022/05/31 10:56:12;;;;;;;;;;;;;;;16.68;65.38;100140.53;4967564;28;19937;-67
2022/05/31 10:58:47;;;;;;;;;;;;;;;16.56;65.46;100120.91;4973343;28;19928;-68
2022/05/31 11:01:19;;;;;;;;;;;;;;;16.67;65.48;100133.38;5006446;28;19944;-68
2022/05/31 11:03:51;;;;;;;;;;;;;;;16.67;65.48;100147.19;5010243;28;20409;-68
2022/05/31 11:06:23;;;;;;;;;;;;;;;16.69;65.47;100147.69;5009006;28;19929;-68
2022/05/31 11:11:47;;;;;;;;;;;;;;;16.76;65.94;100152.81;5028736;28;19924;-67
2022/05/31 11:14:26;;;;;;;;;;;;;;;16.77;65.74;100148.09;5021414;28;19925;-67
2022/05/31 11:16:57;;;;;;;;;;;;;;;16.82;66.01;100148.78;5014645;28;19933;-68
2022/05/31 11:19:29;;;;;;;;;;;;;;;16.82;65.50;100143.28;5015902;28;19948;-68
2022/05/31 11:22:12;;;;;;;;;;;;;;;16.75;65.71;100145.66;5016474;28;19925;-67
2022/05/31 11:24:48;;;;;;;;;;;;;;;16.75;65.67;100158.63;5021636;28;19925;-67
2022/05/31 11:27:28;;;;;;;;;;;;;;;16.65;65.83;100149.44;5032110;28;19932;-68
2022/05/31 11:30:02;;;;;;;;;;;;;;;16.59;65.85;100145.97;5040086;28;19928;-68
2022/05/31 11:32:37;;;;;;;;;;;;;;;16.54;65.84;100154.31;5013467;28;19932;-68
2022/05/31 11:35:09;;;;;;;;;;;;;;;16.50;65.97;100150.56;5019127;28;19971;-68
2022/05/31 11:37:48;;;;;;;;;;;;;;;16.49;65.76;100162.72;5010562;28;20023;-68
2022/05/31 11:40:23;;;;;;;;;;;;;;;16.53;65.91;100152.69;5010670;28;19948;-68
2022/05/31 11:43:16;;;;;;;;;;;;;;;16.56;66.34;100165.91;5010966;28;19925;-67
2022/05/31 11:45:46;;;;;;;;;;;;;;;16.59;66.34;100161.69;4991489;28;20372;-68
2022/05/31 11:48:30;;;;;;;;;;;;;;;16.65;66.48;100165.16;5024536;28;19931;-68
2022/05/31 11:51:02;;;;;;;;;;;;;;;16.72;65.98;100160.06;5025845;28;19925;-68
2022/05/31 11:53:36;;;;;;;;;;;;;;;16.82;65.64;100157.09;5043601;28;20510;-68
2022/05/31 11:56:08;;;;;;;;;;;;;;;16.91;65.65;100150.84;5043904;28;19926;-68
2022/05/31 11:58:39;;;;;;;;;;;;;;;16.91;65.57;100153.59;5023626;28;19976;-67
2022/05/31 12:01:12;;;;;;;;;;;;;;;16.89;66.02;100153.09;5025659;28;19925;-68
2022/05/31 12:03:41;;;;;;;;;;;;;;;16.84;65.75;100154.03;5009580;28;19997;-68
2022/05/31 12:06:14;;;;;;;;;;;;;;;16.80;66.04;100164.06;5006807;28;19972;-68
2022/05/31 12:08:43;;;;;;;;;;;;;;;16.79;66.31;100162.41;5025894;28;19925;-67
2022/05/31 12:11:14;;;;;;;;;;;;;;;16.79;66.46;100163.22;5017533;28;19931;-68
2022/05/31 12:13:42;;;;;;;;;;;;;;;16.75;66.59;100164.97;5024651;28;19925;-67
2022/05/31 12:16:08;;;;;;;;;;;;;;;16.75;66.88;100159.44;5015267;28;20474;-68
2022/05/31 12:18:37;;;;;;;;;;;;;;;16.74;66.83;100166.09;5004853;28;20404;-68
2022/05/31 12:21:09;;;;;;;;;;;;;;;16.76;67.05;100168.53;5005999;28;19952;-68
2022/05/31 12:23:37;;;;;;;;;;;;;;;16.73;67.53;100168.03;5007795;28;19925;-68
2022/05/31 12:26:05;;;;;;;;;;;;;;;16.69;67.62;100164.25;5007709;28;19929;-68
2022/05/31 12:28:37;;;;;;;;;;;;;;;16.69;67.26;100158.72;5009263;28;19957;-68
2022/05/31 12:31:07;;;;;;;;;;;;;;;16.71;67.33;100155.69;5009189;28;19964;-68
2022/05/31 12:33:38;;;;;;;;;;;;;;;16.77;67.25;100159.97;5012120;28;20411;-67
2022/05/31 12:36:04;;;;;;;;;;;;;;;16.82;67.23;100168.13;5015790;28;19932;-68
2022/05/31 12:38:50;;;;;;;;;;;;;;;16.83;67.15;100153.19;5004969;28;19925;-67
2022/05/31 12:41:30;;;;;;;;;;;;;;;16.84;67.53;100148.50;5019303;28;19979;-68
2022/05/31 12:43:58;;;;;;;;;;;;;;;16.84;68.06;100145.75;5022000;28;19925;-68
2022/05/31 12:46:35;;;;;;;;;;;;;;;16.78;68.48;100147.78;5010997;28;20412;-68
2022/05/31 12:49:03;;;;;;;;;;;;;;;16.71;68.59;100148.19;5006841;28;19925;-68
2022/05/31 12:51:29;;;;;;;;;;;;;;;16.68;68.58;100145.22;5031402;28;20014;-68
2022/05/31 12:54:05;;;;;;;;;;;;;;;16.61;68.90;100139.31;5026415;28;19925;-68
2022/05/31 12:57:01;;;;;;;;;;;;;;;16.55;69.18;100142.19;5008646;28;19925;-68
2022/05/31 12:59:53;;;;;;;;;;;;;;;16.49;69.87;100143.41;5004967;28;19960;-68
2022/05/31 13:02:29;;;;;;;;;;;;;;;16.44;69.81;100140.75;4996943;28;19932;-69
2022/05/31 13:04:58;;;;;;;;;;;;;;;16.45;69.84;100140.41;5005075;28;19932;-68
2022/05/31 13:07:39;;;;;;;;;;;;;;;16.47;70.12;100134.59;4989523;28;19925;-68
2022/05/31 13:10:23;;;;;;;;;;;;;;;16.44;70.81;100138.00;5013164;28;20400;-68
2022/05/31 13:19:34;;;;;;;;;;;;;;;16.55;70.59;100135.84;5004828;28;20172;-68
2022/05/31 13:21:11;;;;;;;;;;;;;;;16.72;70.29;100129.72;5012671;28;19925;-68
2022/05/31 13:23:41;;;;;;;;;;;;;;;16.73;70.07;100132.13;5016363;28;19925;-68
2022/05/31 13:26:09;;;;;;;;;;;;;;;16.79;69.80;100124.56;5018684;28;19936;-68